Time;durP1;ratioP1;P1;durP2;ratioP2;P2;SDS_P1;SDS_P2;PMS_P1;PMS_P2;Temp;Humidity;BMP_temperature;BMP_pressure;BME280_temperature;BME280_humidity;BME280_pressure;Samples;Min_cycle;Max_cycle;Signal;HPM_P1;HPM_P2
2021/09/04 00:02:23;;;;;;;45.43;17.62;;;;;;;9.26;83.82;94728.63;1580666;89;21218;-59
2021/09/04 00:04:49;;;;;;;39.80;16.25;;;;;;;9.24;83.89;94730.29;1601479;88;21479;-58
2021/09/04 00:07:16;;;;;;;45.73;13.83;;;;;;;9.19;83.85;94724.73;1588208;89;21047;-59
2021/09/04 00:09:43;;;;;;;41.00;16.07;;;;;;;9.15;83.89;94729.57;1602915;88;21014;-60
2021/09/04 00:12:10;;;;;;;51.10;15.75;;;;;;;9.13;83.99;94728.45;1609269;88;21476;-60
2021/09/04 00:14:40;;;;;;;32.33;13.45;;;;;;;9.10;84.10;94725.98;1584685;89;21085;-59
2021/09/04 00:17:07;;;;;;;29.42;14.53;;;;;;;9.05;84.36;94733.39;1599379;88;21101;-59
2021/09/04 00:19:34;;;;;;;28.23;12.30;;;;;;;9.07;84.33;94732.96;1603073;88;21495;-60
2021/09/04 00:22:01;;;;;;;20.70;12.25;;;;;;;9.04;84.17;94737.95;1585918;89;21099;-59
2021/09/04 00:24:27;;;;;;;26.27;12.30;;;;;;;9.04;84.09;94732.47;1605150;88;21098;-59
2021/09/04 00:26:55;;;;;;;33.88;12.10;;;;;;;9.00;83.82;94727.67;1623149;87;21157;-59
2021/09/04 00:29:22;;;;;;;46.53;12.13;;;;;;;9.03;83.83;94730.94;1612975;88;21549;-59
2021/09/04 00:31:49;;;;;;;36.25;13.10;;;;;;;9.04;84.02;94729.73;1591028;90;21036;-58
2021/09/04 00:34:16;;;;;;;20.20;11.40;;;;;;;9.01;84.27;94734.10;1607365;88;21150;-59
2021/09/04 00:36:42;;;;;;;12.63;9.30;;;;;;;8.96;84.39;94731.91;1578318;89;21042;-58
2021/09/04 00:39:09;;;;;;;18.37;8.13;;;;;;;8.90;84.22;94729.52;1603526;88;21132;-59
2021/09/04 00:41:36;;;;;;;12.00;8.38;;;;;;;8.88;84.15;94727.06;1661378;85;20979;-60
2021/09/04 00:44:06;;;;;;;13.03;8.55;;;;;;;8.88;84.17;94728.44;1608106;88;21058;-58
2021/09/04 00:46:33;;;;;;;21.25;10.78;;;;;;;8.85;84.13;94725.20;1591142;89;21012;-59
2021/09/04 00:48:59;;;;;;;16.73;10.32;;;;;;;8.85;84.14;94725.20;1608092;88;20966;-61
2021/09/04 00:51:26;;;;;;;19.00;11.00;;;;;;;8.82;84.11;94724.67;1628365;86;21164;-59
2021/09/04 00:53:53;;;;;;;19.65;11.30;;;;;;;8.81;84.56;94734.73;1601835;88;20987;-60
2021/09/04 00:56:20;;;;;;;26.87;11.12;;;;;;;8.83;84.54;94724.09;1593254;89;21165;-60
2021/09/04 00:58:48;;;;;;;15.88;9.10;;;;;;;8.86;84.53;94723.99;1599368;88;21086;-59
2021/09/04 01:01:15;;;;;;;14.80;9.85;;;;;;;8.86;84.07;94726.73;1631498;86;21472;-60
2021/09/04 01:03:45;;;;;;;22.35;11.73;;;;;;;8.81;83.86;94734.73;1599322;88;21197;-60
2021/09/04 01:06:14;;;;;;;25.92;11.22;;;;;;;8.75;83.90;94724.89;1612622;88;21361;-60
2021/09/04 01:08:42;;;;;;;19.32;10.78;;;;;;;8.71;83.98;94717.38;1604163;88;21009;-59
2021/09/04 01:11:11;;;;;;;27.35;10.35;;;;;;;8.72;84.02;94717.54;1604608;88;21114;-59
2021/09/04 01:13:39;;;;;;;24.10;10.85;;;;;;;8.71;84.21;94716.00;1579776;89;21170;-60
2021/09/04 01:16:05;;;;;;;18.92;11.20;;;;;;;8.69;84.44;94714.30;1606310;88;21146;-60
2021/09/04 01:18:32;;;;;;;20.95;10.80;;;;;;;8.68;84.76;94712.77;1631592;86;20991;-59
2021/09/04 01:21:08;;;;;;;20.08;12.00;;;;;;;8.67;84.71;94713.97;1595029;88;21035;-60
2021/09/04 01:23:36;;;;;;;18.32;10.95;;;;;;;8.65;84.86;94712.23;1590208;89;21054;-58
2021/09/04 01:26:09;;;;;;;18.48;10.30;;;;;;;8.66;84.70;94716.52;1600361;87;21093;-60
2021/09/04 01:28:38;;;;;;;15.20;9.45;;;;;;;8.67;84.44;94715.93;1591959;89;21246;-59
2021/09/04 01:31:05;;;;;;;18.35;10.55;;;;;;;8.66;84.09;94713.02;1607954;88;21252;-59
2021/09/04 01:33:32;;;;;;;18.92;9.78;;;;;;;8.58;84.00;94712.45;1635209;86;21073;-58
2021/09/04 01:35:58;;;;;;;17.85;10.55;;;;;;;8.55;84.20;94714.70;1596217;88;21185;-60
2021/09/04 01:38:25;;;;;;;17.27;9.75;;;;;;;8.51;84.26;94725.00;1629027;86;21077;-59
2021/09/04 01:40:53;;;;;;;15.08;9.50;;;;;;;8.46;84.38;94722.77;1602050;87;21755;-60
2021/09/04 01:43:20;;;;;;;13.03;8.65;;;;;;;8.46;84.43;94726.87;1587397;89;21114;-60
2021/09/04 01:45:46;;;;;;;15.83;10.35;;;;;;;8.46;84.50;94726.87;1612886;88;21106;-60
2021/09/04 01:48:13;;;;;;;17.80;11.83;;;;;;;8.44;84.73;94727.92;1582358;89;21057;-59
2021/09/04 01:50:40;;;;;;;18.23;11.48;;;;;;;8.40;84.96;94728.63;1606324;88;21108;-60
2021/09/04 01:53:06;;;;;;;19.37;11.80;;;;;;;8.36;85.01;94726.59;1611722;88;21151;-59
2021/09/04 01:55:33;;;;;;;14.95;9.23;;;;;;;8.33;84.79;94724.72;1596502;88;20970;-60
2021/09/04 01:58:00;;;;;;;17.07;8.98;;;;;;;8.32;84.95;94723.17;1579527;89;21055;-60
2021/09/04 02:00:26;;;;;;;16.45;9.90;;;;;;;8.29;85.19;94721.28;1595952;88;21074;-58
2021/09/04 02:02:53;;;;;;;18.57;10.75;;;;;;;8.26;85.25;94711.19;1585123;89;21021;-59
2021/09/04 02:05:20;;;;;;;13.98;9.33;;;;;;;8.27;85.43;94715.47;1600475;88;21921;-60
2021/09/04 02:07:46;;;;;;;20.82;9.55;;;;;;;8.29;85.25;94715.05;1586941;89;20987;-59
2021/09/04 02:10:15;;;;;;;13.80;9.10;;;;;;;8.34;85.16;94710.39;1596346;88;21479;-60
2021/09/04 02:12:42;;;;;;;15.98;9.58;;;;;;;8.40;84.98;94710.80;1613564;88;20997;-60
2021/09/04 02:15:09;;;;;;;11.85;8.50;;;;;;;8.45;84.83;94704.03;1587122;89;21117;-60
2021/09/04 02:17:38;;;;;;;20.05;11.65;;;;;;;8.47;84.31;94694.77;1606585;88;22317;-58
2021/09/04 02:20:07;;;;;;;24.90;13.35;;;;;;;8.46;84.29;94703.58;1588917;89;21107;-59
2021/09/04 02:22:34;;;;;;;20.32;11.88;;;;;;;8.48;84.44;94703.16;1614544;88;21035;-59
2021/09/04 02:25:04;;;;;;;26.52;11.38;;;;;;;8.47;84.29;94694.15;1595392;88;21062;-59
2021/09/04 02:27:32;;;;;;;14.47;9.95;;;;;;;8.42;84.38;94695.31;1629089;86;20978;-59
2021/09/04 02:30:02;;;;;;;17.95;11.08;;;;;;;8.40;84.56;94689.49;1601421;88;21148;-59
2021/09/04 02:32:29;;;;;;;18.87;11.78;;;;;;;8.34;84.70;94697.47;1639602;86;21071;-59
2021/09/04 02:34:58;;;;;;;19.02;10.03;;;;;;;8.31;84.81;94701.67;1599377;88;21137;-59
2021/09/04 02:37:26;;;;;;;16.87;10.48;;;;;;;8.30;84.60;94709.73;1594271;88;21573;-59
2021/09/04 02:39:54;;;;;;;14.83;10.80;;;;;;;8.25;84.51;94711.02;1629132;86;21144;-59
2021/09/04 02:42:22;;;;;;;19.57;12.03;;;;;;;8.25;84.45;94713.76;1595909;87;21787;-60
2021/09/04 02:44:48;;;;;;;27.75;13.83;;;;;;;8.23;84.20;94717.54;1594781;89;21149;-59
2021/09/04 02:47:15;;;;;;;24.80;11.83;;;;;;;8.21;84.33;94710.35;1597482;88;21655;-58
2021/09/04 02:49:42;;;;;;;29.25;13.50;;;;;;;8.14;84.34;94705.05;1643126;86;20985;-59
2021/09/04 02:52:10;;;;;;;22.93;13.28;;;;;;;8.02;84.36;94711.22;1609467;88;21054;-59
2021/09/04 02:54:37;;;;;;;23.47;12.35;;;;;;;7.97;84.61;94700.80;1582207;89;21084;-59
2021/09/04 02:57:05;;;;;;;30.02;13.00;;;;;;;8.00;85.02;94702.67;1595373;88;20979;-59
2021/09/04 02:59:33;;;;;;;24.02;11.50;;;;;;;8.06;84.94;94700.94;1630185;86;20994;-60
2021/09/04 03:02:01;;;;;;;20.90;11.63;;;;;;;8.06;84.90;94699.56;1597258;88;21110;-60
2021/09/04 03:04:28;;;;;;;21.97;11.88;;;;;;;8.04;84.42;94704.71;1635587;86;21022;-59
2021/09/04 03:06:56;;;;;;;19.85;11.60;;;;;;;7.99;84.28;94703.87;1602923;88;20979;-60
2021/09/04 03:09:24;;;;;;;26.55;12.60;;;;;;;8.00;84.27;94706.78;1636411;86;21038;-60
2021/09/04 03:11:51;;;;;;;28.50;13.72;;;;;;;8.04;84.25;94710.81;1595049;89;21130;-60
2021/09/04 03:14:18;;;;;;;23.85;11.78;;;;;;;8.02;83.87;94703.01;1582003;89;21054;-58
2021/09/04 03:16:47;;;;;;;19.20;11.78;;;;;;;7.98;83.69;94708.41;1608327;88;21511;-59
2021/09/04 03:19:16;;;;;;;27.17;12.10;;;;;;;7.93;83.81;94701.50;1593431;89;21574;-59
2021/09/04 03:21:43;;;;;;;42.62;14.38;;;;;;;7.90;83.90;94701.58;1615428;88;21107;-60
2021/09/04 03:24:10;;;;;;;26.40;11.12;;;;;;;7.87;84.34;94704.57;1593741;89;21163;-58
2021/09/04 03:26:36;;;;;;;19.15;10.72;;;;;;;7.87;84.22;94697.72;1596185;88;21046;-59
2021/09/04 03:29:04;;;;;;;22.25;10.70;;;;;;;7.82;84.36;94695.52;1640928;86;21140;-59
2021/09/04 03:31:31;;;;;;;22.50;11.22;;;;;;;7.75;84.40;94697.66;1598875;88;21188;-60
2021/09/04 03:33:59;;;;;;;19.92;9.90;;;;;;;7.67;84.64;94701.79;1588546;89;21122;-60
2021/09/04 03:36:26;;;;;;;19.73;11.22;;;;;;;7.62;85.01;94703.66;1595032;88;21161;-60
2021/09/04 03:38:54;;;;;;;24.23;10.10;;;;;;;7.57;85.06;94701.44;1593240;89;21125;-58
2021/09/04 03:41:21;;;;;;;26.77;11.83;;;;;;;7.52;85.13;94688.28;1609664;88;21205;-59
2021/09/04 03:43:49;;;;;;;29.23;11.22;;;;;;;7.48;85.34;94696.57;1590095;89;21174;-59
2021/09/04 03:46:16;;;;;;;18.80;11.20;;;;;;;7.47;85.58;94697.77;1595399;88;21034;-59
2021/09/04 03:48:43;;;;;;;23.35;12.75;;;;;;;7.51;85.63;94703.16;1589295;89;21476;-59
2021/09/04 03:51:09;;;;;;;37.48;11.95;;;;;;;7.53;85.72;94702.89;1595421;88;21095;-60
2021/09/04 03:53:37;;;;;;;20.35;11.00;;;;;;;7.55;85.66;94701.86;1635005;86;21118;-59
2021/09/04 03:56:04;;;;;;;23.70;10.72;;;;;;;7.62;85.86;94705.02;1602180;88;21134;-59
2021/09/04 03:58:34;;;;;;;18.70;10.63;;;;;;;7.63;85.69;94714.19;1600244;88;21038;-59
2021/09/04 04:01:02;;;;;;;23.90;10.88;;;;;;;7.65;86.07;94710.42;1602459;88;21078;-59
2021/09/04 04:03:30;;;;;;;26.97;12.20;;;;;;;7.67;86.14;94705.28;1590316;89;21095;-59
2021/09/04 04:05:57;;;;;;;18.45;10.15;;;;;;;7.75;86.14;94720.35;1605646;88;21102;-60
2021/09/04 04:08:24;;;;;;;14.98;9.90;;;;;;;7.78;86.10;94718.12;1588612;89;21864;-59
2021/09/04 04:10:51;;;;;;;14.95;10.88;;;;;;;7.79;85.79;94728.45;1598983;88;21074;-59
2021/09/04 04:13:18;;;;;;;19.73;11.08;;;;;;;7.72;85.45;94721.19;1642061;86;21569;-59
2021/09/04 04:15:44;;;;;;;21.02;10.72;;;;;;;7.65;85.44;94726.84;1599767;88;21447;-59
2021/09/04 04:18:11;;;;;;;20.97;11.45;;;;;;;7.61;85.36;94719.91;1584352;89;21525;-59
2021/09/04 04:20:38;;;;;;;18.60;10.63;;;;;;;7.57;85.64;94715.91;1615352;88;21783;-59
2021/09/04 04:23:05;;;;;;;22.17;10.55;;;;;;;7.61;85.60;94714.44;1583276;89;21065;-58
2021/09/04 04:25:33;;;;;;;17.95;10.00;;;;;;;7.62;85.78;94725.55;1609592;88;21115;-59
2021/09/04 04:28:00;;;;;;;16.82;10.43;;;;;;;7.63;86.12;94712.82;1590581;89;21150;-63
2021/09/04 04:30:26;;;;;;;26.35;10.80;;;;;;;7.65;86.12;94720.59;1607020;88;21129;-59
2021/09/04 04:32:54;;;;;;;24.70;10.32;;;;;;;7.66;86.38;94718.05;1626890;86;22324;-59
2021/09/04 04:35:22;;;;;;;27.07;12.63;;;;;;;7.72;86.57;94726.66;1634598;86;21065;-59
2021/09/04 04:37:50;;;;;;;26.95;13.15;;;;;;;7.80;86.57;94719.83;1618719;88;21215;-59
2021/09/04 04:40:18;;;;;;;35.23;17.02;;;;;;;7.90;86.50;94726.23;1590082;89;21067;-59
2021/09/04 04:42:45;;;;;;;18.87;11.45;;;;;;;7.98;86.26;94725.63;1597409;88;20971;-60
2021/09/04 04:45:13;;;;;;;25.55;12.90;;;;;;;8.06;85.93;94728.33;1585456;89;21232;-60
2021/09/04 04:47:40;;;;;;;25.02;14.45;;;;;;;8.11;85.54;94720.20;1611434;88;21113;-60
2021/09/04 04:50:11;;;;;;;27.95;15.85;;;;;;;8.15;85.47;94716.17;1612896;88;32840;-61
2021/09/04 04:52:39;;;;;;;29.80;14.68;;;;;;;8.22;85.39;94716.00;1579263;89;21565;-63
2021/09/04 04:55:08;;;;;;;32.15;13.48;;;;;;;8.26;85.45;94719.41;1597608;88;21120;-60
2021/09/04 04:57:35;;;;;;;26.48;12.50;;;;;;;8.32;85.58;94719.66;1640675;86;21714;-60
2021/09/04 05:00:03;;;;;;;13.68;8.80;;;;;;;8.40;85.59;94715.53;1594693;88;21634;-60
2021/09/04 05:02:30;;;;;;;26.00;10.68;;;;;;;8.44;85.34;94714.21;1582805;89;21092;-60
2021/09/04 05:04:57;;;;;;;21.45;12.60;;;;;;;8.51;85.28;94711.30;1597036;88;21095;-59
2021/09/04 05:07:24;;;;;;;25.90;12.33;;;;;;;8.55;85.13;94711.95;1579362;89;20994;-60
2021/09/04 05:09:50;;;;;;;19.90;11.75;;;;;;;8.57;85.10;94704.65;1605420;88;21132;-59
2021/09/04 05:12:18;;;;;;;20.05;12.13;;;;;;;8.58;85.14;94700.73;1593490;89;21155;-59
2021/09/04 05:14:45;;;;;;;16.45;9.50;;;;;;;8.60;85.33;94700.44;1605469;88;21123;-61
2021/09/04 05:17:13;;;;;;;15.05;10.05;;;;;;;8.70;85.45;94704.87;1647789;86;21030;-60
2021/09/04 05:19:41;;;;;;;28.47;11.63;;;;;;;8.80;85.66;94701.65;1607227;88;21219;-61
2021/09/04 05:22:08;;;;;;;13.80;8.73;;;;;;;8.91;85.67;94695.39;1592103;89;21117;-59
2021/09/04 05:24:34;;;;;;;24.77;9.20;;;;;;;9.03;85.49;94698.01;1604431;88;21117;-60
2021/09/04 05:27:01;;;;;;;30.02;10.72;;;;;;;9.10;85.24;94690.92;1630471;86;21404;-59
2021/09/04 05:29:30;;;;;;;17.55;10.00;;;;;;;9.16;85.04;94694.64;1602146;88;21034;-60
2021/09/04 05:31:57;;;;;;;18.23;8.55;;;;;;;9.23;84.95;94688.95;1590450;89;21127;-59
2021/09/04 05:34:23;;;;;;;17.82;9.43;;;;;;;9.26;84.86;94688.83;1598329;88;21164;-60
2021/09/04 05:36:52;;;;;;;36.45;10.70;;;;;;;9.33;84.74;94685.09;1654425;86;21582;-60
2021/09/04 05:39:19;;;;;;;26.73;11.68;;;;;;;9.38;84.67;94687.28;1608819;88;21061;-59
2021/09/04 05:41:46;;;;;;;38.38;11.43;;;;;;;9.46;84.75;94694.09;1634464;86;21149;-59
2021/09/04 05:44:13;;;;;;;31.93;9.98;;;;;;;9.59;84.58;94679.75;1601488;88;21419;-59
2021/09/04 05:46:41;;;;;;;19.55;8.83;;;;;;;9.72;84.23;94674.39;1592978;89;21173;-62
2021/09/04 05:49:07;;;;;;;33.02;11.30;;;;;;;9.82;84.03;94678.00;1602363;88;21244;-61
2021/09/04 05:51:34;;;;;;;17.55;8.78;;;;;;;9.92;83.87;94675.48;1587876;89;21199;-61
2021/09/04 05:54:01;;;;;;;21.25;9.40;;;;;;;10.03;83.61;94670.43;1602286;88;21121;-61
2021/09/04 05:56:28;;;;;;;16.62;9.38;;;;;;;10.11;83.32;94662.87;1580788;89;21085;-61
2021/09/04 05:58:54;;;;;;;15.75;9.73;;;;;;;10.20;82.98;94663.55;1597326;88;21162;-60
2021/09/04 06:01:21;;;;;;;25.35;10.28;;;;;;;10.31;82.71;94669.45;1642618;86;20983;-60
2021/09/04 06:03:48;;;;;;;23.50;10.40;;;;;;;10.39;82.68;94666.59;1625690;88;21214;-61
2021/09/04 06:06:14;;;;;;;42.65;13.20;;;;;;;10.48;82.67;94666.64;1575560;89;21105;-60
2021/09/04 06:08:41;;;;;;;26.60;13.35;;;;;;;10.56;82.75;94659.06;1607787;88;21085;-60
2021/09/04 06:11:07;;;;;;;33.00;20.05;;;;;;;10.68;82.58;94662.98;1587742;89;21495;-59
2021/09/04 06:13:34;;;;;;;24.72;11.10;;;;;;;10.81;82.51;94661.69;1603412;87;21320;-59
2021/09/04 06:16:01;;;;;;;19.32;10.60;;;;;;;10.95;82.22;94655.03;1631370;86;21042;-59
2021/09/04 06:18:29;;;;;;;19.10;9.30;;;;;;;11.06;81.51;94660.13;1602389;88;21014;-61
2021/09/04 06:20:57;;;;;;;28.20;9.43;;;;;;;11.15;81.11;94658.80;1644503;86;21085;-60
2021/09/04 06:23:24;;;;;;;21.87;9.88;;;;;;;11.24;80.98;94666.48;1614600;88;21963;-60
2021/09/04 06:25:51;;;;;;;17.73;9.35;;;;;;;11.33;80.55;94664.38;1577262;89;21073;-60
2021/09/04 06:28:18;;;;;;;12.00;8.13;;;;;;;11.44;80.31;94664.70;1603360;88;20998;-62
2021/09/04 06:30:46;;;;;;;16.05;8.80;;;;;;;11.62;79.97;94664.80;1576749;89;21535;-60
2021/09/04 06:33:13;;;;;;;16.05;8.95;;;;;;;11.81;79.47;94671.28;1601117;87;21003;-60
2021/09/04 06:35:39;;;;;;;25.32;9.48;;;;;;;11.93;78.97;94661.34;1594489;89;21167;-59
2021/09/04 06:38:06;;;;;;;12.40;9.35;;;;;;;12.04;78.94;94665.19;1596525;88;21123;-59
2021/09/04 06:40:34;;;;;;;26.70;9.98;;;;;;;12.19;78.37;94664.74;1589565;89;21110;-59
2021/09/04 06:43:01;;;;;;;19.27;8.80;;;;;;;12.32;78.06;94662.61;1596765;88;21105;-60
2021/09/04 06:45:28;;;;;;;12.43;7.80;;;;;;;12.43;77.62;94661.52;1586528;89;21798;-60
2021/09/04 06:47:56;;;;;;;18.37;8.00;;;;;;;12.53;77.33;94662.42;1597051;88;21022;-62
2021/09/04 06:50:24;;;;;;;15.63;8.50;;;;;;;12.66;77.08;94656.73;1626358;86;21214;-62
2021/09/04 06:52:52;;;;;;;17.82;8.53;;;;;;;12.77;77.26;94660.58;1606534;88;21098;-62
2021/09/04 06:55:20;;;;;;;26.42;10.10;;;;;;;12.95;77.08;94651.50;1637237;86;21050;-63
2021/09/04 06:57:47;;;;;;;20.12;8.80;;;;;;;13.13;76.87;94647.30;1606664;88;21583;-63
2021/09/04 07:00:15;;;;;;;31.07;9.55;;;;;;;13.34;76.50;94655.97;1583467;89;21782;-63
2021/09/04 07:02:41;;;;;;;20.02;8.88;;;;;;;13.53;75.96;94651.89;1609937;88;21081;-60
2021/09/04 07:05:10;;;;;;;23.92;7.15;;;;;;;13.70;75.39;94651.66;1584883;89;21103;-61
2021/09/04 07:07:37;;;;;;;9.25;6.85;;;;;;;13.86;74.41;94650.66;1610837;88;21016;-60
2021/09/04 07:10:05;;;;;;;17.52;7.37;;;;;;;13.99;73.22;94651.17;1636812;86;21076;-62
2021/09/04 07:12:32;;;;;;;12.15;6.28;;;;;;;14.05;72.57;94650.69;1601947;87;21755;-61
2021/09/04 07:15:02;;;;;;;19.23;8.35;;;;;;;14.16;72.34;94646.03;1637309;86;21514;-62
2021/09/04 07:17:29;;;;;;;13.95;6.95;;;;;;;14.28;71.95;94645.78;1596139;88;21006;-64
2021/09/04 07:19:57;;;;;;;12.70;6.78;;;;;;;14.37;71.54;94651.23;1641342;86;20997;-63
2021/09/04 07:22:24;;;;;;;9.75;6.83;;;;;;;14.45;71.32;94647.62;1599465;87;21093;-60
2021/09/04 07:24:50;;;;;;;11.50;7.00;;;;;;;14.58;71.07;94644.59;1644100;86;21159;-62
2021/09/04 07:27:17;;;;;;;12.25;6.12;;;;;;;14.74;70.92;94644.13;1602246;88;21035;-61
2021/09/04 07:29:44;;;;;;;19.87;7.10;;;;;;;14.90;70.63;94650.59;1635611;86;21064;-61
2021/09/04 07:32:11;;;;;;;15.90;7.85;;;;;;;15.04;70.26;94647.82;1601530;88;21056;-62
2021/09/04 07:34:38;;;;;;;16.07;7.53;;;;;;;15.19;69.62;94644.42;1647170;86;21626;-61
2021/09/04 07:37:05;;;;;;;12.53;6.78;;;;;;;15.35;69.03;94644.61;1601838;88;21161;-61
2021/09/04 07:39:32;;;;;;;13.40;6.95;;;;;;;15.48;68.57;94638.89;1591738;89;21008;-63
2021/09/04 07:41:59;;;;;;;10.80;7.10;;;;;;;15.64;68.63;94641.16;1609412;87;21059;-62
2021/09/04 07:44:26;;;;;;;11.65;6.97;;;;;;;15.78;68.69;94641.75;1584374;89;21027;-61
2021/09/04 07:46:52;;;;;;;16.52;7.95;;;;;;;15.90;68.14;94642.02;1602106;88;21041;-61
2021/09/04 07:49:19;;;;;;;12.58;7.33;;;;;;;15.99;68.38;94643.91;1587368;89;21142;-59
2021/09/04 07:51:46;;;;;;;15.15;7.28;;;;;;;16.08;68.54;94639.62;1601143;87;21030;-61
2021/09/04 07:54:12;;;;;;;15.28;7.20;;;;;;;16.20;68.06;94642.06;1586832;89;21510;-61
2021/09/04 07:56:40;;;;;;;59.88;30.00;;;;;;;16.33;67.81;94626.57;1595765;88;21034;-67
2021/09/04 07:59:08;;;;;;;89.65;45.75;;;;;;;16.49;67.28;94628.81;1632051;86;21015;-64
2021/09/04 08:01:34;;;;;;;55.65;31.95;;;;;;;16.65;66.98;94630.23;1597684;88;21187;-65
2021/09/04 08:04:01;;;;;;;66.20;34.53;;;;;;;16.80;66.37;94623.96;1609607;88;21035;-65
2021/09/04 08:06:28;;;;;;;52.23;27.48;;;;;;;16.97;65.83;94615.94;1604516;88;21141;-65
2021/09/04 08:08:55;;;;;;;40.23;17.77;;;;;;;17.15;65.52;94610.05;1645773;86;21025;-65
2021/09/04 08:11:22;;;;;;;27.05;13.72;;;;;;;17.35;64.98;94620.33;1637075;86;21082;-65
2021/09/04 08:13:49;;;;;;;22.22;12.28;;;;;;;17.54;64.26;94610.36;1603137;87;21161;-65
2021/09/04 08:16:17;;;;;;;16.60;8.35;;;;;;;17.70;63.20;94611.11;1587475;89;21031;-62
2021/09/04 08:18:46;;;;;;;25.80;8.83;;;;;;;17.85;62.44;94612.46;1597418;88;20974;-63
2021/09/04 08:21:13;;;;;;;12.82;7.70;;;;;;;18.02;60.12;94601.44;1644646;86;20987;-63
2021/09/04 08:23:40;;;;;;;14.70;8.05;;;;;;;18.22;59.84;94600.63;1598708;88;21134;-64
2021/09/04 08:26:06;;;;;;;12.05;7.80;;;;;;;18.46;58.20;94602.42;1592100;89;21175;-64
2021/09/04 08:28:33;;;;;;;12.85;7.05;;;;;;;18.66;56.51;94607.16;1632622;86;21081;-63
2021/09/04 08:31:00;;;;;;;13.32;7.33;;;;;;;18.84;56.45;94605.95;1607088;88;21125;-62
2021/09/04 08:33:27;;;;;;;9.33;6.05;;;;;;;19.02;54.51;94600.65;1635933;86;21582;-61
2021/09/04 08:35:57;;;;;;;10.90;7.33;;;;;;;19.20;53.10;94598.80;1599107;88;21015;-60
2021/09/04 08:38:24;;;;;;;8.75;5.62;;;;;;;19.37;53.73;94607.94;1582933;89;21134;-62
2021/09/04 08:40:51;;;;;;;8.78;6.62;;;;;;;19.54;51.54;94599.58;1613233;88;21539;-64
2021/09/04 08:43:18;;;;;;;12.07;6.78;;;;;;;19.66;51.21;94601.84;1588548;88;21625;-60
2021/09/04 08:45:45;;;;;;;11.63;6.72;;;;;;;19.75;50.39;94598.77;1599338;88;21054;-62
2021/09/04 08:48:12;;;;;;;10.32;6.55;;;;;;;19.83;51.01;94605.37;1583365;89;21090;-61
2021/09/04 08:50:38;;;;;;;15.13;6.30;;;;;;;19.96;49.70;94604.84;1600798;88;21951;-60
2021/09/04 08:53:05;;;;;;;13.22;7.37;;;;;;;20.08;48.46;94604.33;1580550;89;21153;-61
2021/09/04 08:55:34;;;;;;;9.48;6.62;;;;;;;20.16;48.16;94609.53;1601318;88;21148;-61
2021/09/04 08:58:03;;;;;;;15.38;7.00;;;;;;;20.27;47.94;94606.69;1639093;86;21115;-62
2021/09/04 09:00:33;;;;;;;11.12;6.83;;;;;;;20.43;48.74;94607.27;1631558;86;21010;-62
2021/09/04 09:02:59;;;;;;;67.53;9.78;;;;;;;20.60;46.83;94605.16;1599117;88;21172;-62
2021/09/04 09:05:30;;;;;;;7.85;5.85;;;;;;;20.70;45.73;94597.36;1637871;86;21037;-62
2021/09/04 09:07:57;;;;;;;8.68;6.28;;;;;;;20.79;46.09;94596.30;1615493;86;21014;-62
2021/09/04 09:10:30;;;;;;;7.95;6.08;;;;;;;20.92;44.64;94602.85;1639857;86;21135;-60
2021/09/04 09:12:57;;;;;;;;;;;;;;;21.03;44.24;94606.22;1642652;86;21022;-61
2021/09/04 09:15:28;;;;;;;9.85;6.35;;;;;;;21.08;44.07;94608.98;1638143;86;21151;-63
2021/09/04 09:18:10;;;;;;;10.43;6.05;;;;;;;21.15;43.51;94607.68;1628515;86;21037;-61
2021/09/04 09:20:46;;;;;;;7.27;5.77;;;;;;;21.24;43.37;94608.75;1608569;88;21561;-62
2021/09/04 09:23:18;;;;;;;18.23;7.42;;;;;;;21.32;43.13;94600.67;1588145;89;21604;-63
2021/09/04 09:25:46;;;;;;;14.63;6.75;;;;;;;21.40;43.66;94601.65;1606448;88;21083;-60
2021/09/04 09:28:16;;;;;;;7.17;6.12;;;;;;;21.49;43.38;94599.16;1588274;89;21094;-63
2021/09/04 09:30:45;;;;;;;10.45;6.25;;;;;;;21.56;41.87;94599.98;1604866;88;20978;-62
2021/09/04 09:33:14;;;;;;;9.18;6.40;;;;;;;21.70;40.96;94594.05;1649732;86;21097;-63
2021/09/04 09:35:52;;;;;;;9.80;6.33;;;;;;;21.69;40.61;94598.11;1583247;88;21062;-63
2021/09/04 09:38:21;;;;;;;9.90;6.20;;;;;;;21.70;39.39;94591.88;1578887;89;21149;-63
2021/09/04 09:40:50;;;;;;;9.95;5.90;;;;;;;21.77;40.36;94598.30;1595356;88;21467;-62
2021/09/04 09:43:24;;;;;;;14.15;7.33;;;;;;;21.94;40.59;94591.90;1590912;89;21009;-62
2021/09/04 09:45:57;;;;;;;8.20;6.42;;;;;;;22.16;39.03;94599.44;1599087;88;21202;-66
2021/09/04 09:48:26;;;;;;;9.55;6.37;;;;;;;22.39;39.51;94600.11;1642276;86;21090;-64
2021/09/04 09:50:55;;;;;;;8.25;5.70;;;;;;;22.74;38.46;94592.92;1639884;86;21475;-62
2021/09/04 09:53:23;;;;;;;8.28;5.97;;;;;;;23.10;37.92;94589.23;1596404;88;21145;-63
2021/09/04 09:55:51;;;;;;;7.58;6.15;;;;;;;23.34;37.74;94584.94;1646413;86;21022;-63
2021/09/04 09:58:21;;;;;;;21.33;6.97;;;;;;;23.61;38.67;94581.69;1611376;88;21049;-62
2021/09/04 10:00:53;;;;;;;10.75;5.50;;;;;;;23.88;37.92;94580.50;1583026;89;21033;-62
2021/09/04 10:03:21;;;;;;;11.48;5.97;;;;;;;24.07;38.41;94578.37;1582983;88;21078;-62
2021/09/04 10:05:48;;;;;;;8.75;5.97;;;;;;;24.06;37.75;94574.78;1633852;86;21151;-62
2021/09/04 10:08:19;;;;;;;10.30;6.10;;;;;;;24.15;37.10;94577.19;1601269;88;21435;-62
2021/09/04 10:10:48;;;;;;;11.93;6.17;;;;;;;24.42;37.14;94574.48;1584897;89;21106;-63
2021/09/04 10:13:16;;;;;;;14.13;5.90;;;;;;;24.83;35.62;94575.34;1596316;88;21558;-62
2021/09/04 10:15:51;;;;;;;6.80;5.25;;;;;;;25.27;35.33;94567.36;1587643;89;20994;-63
2021/09/04 10:18:25;;;;;;;7.05;5.70;;;;;;;25.81;35.65;94570.89;1603607;88;21156;-62
2021/09/04 10:21:09;;;;;;;7.87;5.60;;;;;;;26.34;33.02;94560.13;1642011;86;21030;-60
2021/09/04 10:23:40;;;;;;;8.65;5.67;;;;;;;26.68;32.54;94563.56;1596166;88;21291;-62
2021/09/04 10:26:31;;;;;;;15.40;6.03;;;;;;;26.89;31.41;94569.88;1636129;86;20990;-63
2021/09/04 10:29:11;;;;;;;9.00;5.53;;;;;;;27.10;31.64;94563.52;1602936;88;21058;-62
2021/09/04 10:31:59;;;;;;;15.23;5.97;;;;;;;27.51;29.87;94568.91;1586563;89;21575;-63
2021/09/04 10:34:35;;;;;;;7.37;5.37;;;;;;;27.62;30.16;94562.88;1605675;88;21098;-62
2021/09/04 10:37:17;;;;;;;12.28;5.92;;;;;;;27.71;29.72;94560.95;1637563;86;20999;-62
2021/09/04 10:40:10;;;;;;;11.28;5.30;;;;;;;27.96;32.11;94564.73;1615952;88;21058;-61
2021/09/04 10:42:40;;;;;;;8.80;5.62;;;;;;;28.41;29.93;94570.42;1637398;86;21188;-61
2021/09/04 10:45:12;;;;;;;9.43;5.30;;;;;;;28.47;28.54;94566.07;1597088;88;21523;-62
2021/09/04 10:47:57;;;;;;;8.30;5.10;;;;;;;28.51;29.20;94556.52;1584458;89;21117;-61
2021/09/04 10:50:27;;;;;;;9.50;5.85;;;;;;;28.73;28.95;94550.05;1604654;88;21047;-60
2021/09/04 10:53:01;;;;;;;6.33;5.28;;;;;;;29.10;29.45;94550.61;1593535;89;21068;-62
2021/09/04 10:55:39;;;;;;;11.35;5.75;;;;;;;29.47;28.68;94554.62;1596788;88;21116;-63
2021/09/04 10:58:09;;;;;;;6.20;5.12;;;;;;;29.09;28.96;94552.58;1635243;86;21829;-61
2021/09/04 11:00:49;;;;;;;6.97;6.15;;;;;;;28.45;29.03;94559.46;1596168;88;21025;-61
2021/09/04 11:03:20;;;;;;;8.68;6.03;;;;;;;27.78;29.82;94553.80;1581233;89;21026;-63
2021/09/04 11:05:57;;;;;;;9.18;5.40;;;;;;;27.80;29.97;94563.22;1600733;88;21123;-62
2021/09/04 11:08:37;;;;;;;9.30;5.62;;;;;;;28.01;29.74;94559.57;1615280;86;21711;-63
2021/09/04 11:11:19;;;;;;;11.03;5.92;;;;;;;28.07;29.14;94553.05;1622408;88;21821;-61
2021/09/04 11:13:52;;;;;;;12.45;5.42;;;;;;;27.97;29.31;94563.41;1619588;87;21090;-61
2021/09/04 11:16:36;;;;;;;9.47;6.37;;;;;;;27.76;29.06;94562.84;1595355;88;21621;-61
2021/09/04 11:19:13;;;;;;;16.05;5.95;;;;;;;27.32;30.28;94558.59;1586002;89;21036;-64
2021/09/04 11:21:58;;;;;;;8.60;5.97;;;;;;;26.96;31.09;94554.28;1585060;88;21102;-65
2021/09/04 11:24:31;;;;;;;11.40;5.37;;;;;;;26.61;30.93;94546.58;1628959;86;21124;-63
2021/09/04 11:27:04;;;;;;;;;;;;;;;26.21;31.21;94551.79;1635392;86;21122;-64
2021/09/04 11:29:42;;;;;;;11.93;6.15;;;;;;;25.93;31.18;94550.23;1653828;86;20244;-61
2021/09/04 11:32:10;;;;;;;5.95;5.33;;;;;;;25.55;32.88;94547.72;1624987;86;21047;-61
2021/09/04 11:34:48;;;;;;;5.92;5.33;;;;;;;25.28;33.49;94551.31;1597753;88;21101;-61